createdAt,value
2023-04-03T00:00:57.779Z,2.17
2023-04-03T00:03:24.622Z,1.85
2023-04-03T00:05:52.006Z,1.80
2023-04-03T00:08:18.840Z,1.00
2023-04-03T00:10:45.705Z,2.45
2023-04-03T00:13:13.882Z,1.45
2023-04-03T00:15:41.204Z,1.30
2023-04-03T00:18:08.438Z,2.17
2023-04-03T00:20:36.672Z,4.50
2023-04-03T00:23:03.887Z,1.80
2023-04-03T00:25:30.875Z,1.50
2023-04-03T00:27:57.660Z,1.92
2023-04-03T00:30:25.160Z,3.10
2023-04-03T00:32:53.258Z,1.67
2023-04-03T00:35:21.570Z,1.58
2023-04-03T00:37:48.948Z,1.35
2023-04-03T00:40:17.275Z,1.63
2023-04-03T00:42:47.566Z,1.58
2023-04-03T00:45:14.317Z,1.70
2023-04-03T00:47:42.995Z,2.60
2023-04-03T00:50:09.968Z,2.53
2023-04-03T00:52:39.730Z,1.80
2023-04-03T00:55:09.833Z,1.15
2023-04-03T00:57:37.191Z,2.17
2023-04-03T01:00:10.505Z,2.20
2023-04-03T01:02:38.109Z,1.55
2023-04-03T01:05:05.909Z,1.75
2023-04-03T01:07:34.960Z,1.55
2023-04-03T01:10:06.464Z,1.27
2023-04-03T01:12:39.394Z,4.00
2023-04-03T01:15:08.988Z,4.57
2023-04-03T01:17:37.624Z,1.90
2023-04-03T01:20:37.696Z,1.77
2023-04-03T01:23:13.659Z,3.05
2023-04-03T01:25:48.396Z,1.98
2023-04-03T01:28:18.618Z,2.00
2023-04-03T01:31:09.443Z,2.15
2023-04-03T01:33:38.191Z,2.28
2023-04-03T01:36:06.525Z,3.28
2023-04-03T01:38:33.513Z,2.28
2023-04-03T01:41:00.595Z,2.25
2023-04-03T01:43:27.509Z,2.45
2023-04-03T01:45:55.771Z,2.65
2023-04-03T01:48:23.118Z,2.17
2023-04-03T01:50:49.976Z,1.88
2023-04-03T01:53:17.209Z,2.33
2023-04-03T01:55:44.208Z,2.55
2023-04-03T01:58:10.963Z,4.50
2023-04-03T02:00:38.032Z,1.73
2023-04-03T02:03:05.594Z,1.88
2023-04-03T02:05:33.179Z,1.92
2023-04-03T02:08:00.220Z,1.98
2023-04-03T02:10:27.139Z,1.50
2023-04-03T02:12:53.980Z,1.75
2023-04-03T02:15:21.016Z,1.60
2023-04-03T02:17:47.872Z,2.22
2023-04-03T02:20:14.695Z,2.47
2023-04-03T02:22:41.995Z,2.60
2023-04-03T02:25:09.226Z,1.73
2023-04-03T02:27:36.557Z,2.45
2023-04-03T02:30:04.797Z,1.90
2023-04-03T02:32:31.774Z,2.05
2023-04-03T02:34:59.600Z,1.73
2023-04-03T02:37:26.942Z,1.95
2023-04-03T02:39:54.215Z,2.35
2023-04-03T02:42:21.105Z,1.63
2023-04-03T02:44:47.947Z,2.08
2023-04-03T02:47:14.895Z,2.38
2023-04-03T02:49:41.685Z,2.05
2023-04-03T02:52:08.482Z,1.42
2023-04-03T02:54:35.998Z,2.22
2023-04-03T02:57:02.997Z,1.88
2023-04-03T02:59:29.857Z,1.50
2023-04-03T03:01:57.472Z,2.20
2023-04-03T03:04:24.692Z,1.95
2023-04-03T03:06:51.890Z,2.03
2023-04-03T03:09:18.963Z,2.88
2023-04-03T03:11:46.382Z,2.10
2023-04-03T03:14:13.656Z,1.63
2023-04-03T03:16:40.503Z,2.58
2023-04-03T03:19:07.804Z,2.30
2023-04-03T03:21:35.269Z,1.50
2023-04-03T03:24:02.561Z,2.20
2023-04-03T03:26:29.621Z,2.30
2023-04-03T03:28:56.454Z,2.90
2023-04-03T03:31:23.694Z,1.70
2023-04-03T03:33:50.684Z,1.50
2023-04-03T03:36:18.008Z,2.35
2023-04-03T03:38:44.977Z,2.47
2023-04-03T03:41:12.327Z,2.22
2023-04-03T03:43:39.263Z,2.30
2023-04-03T03:46:06.098Z,4.25
2023-04-03T03:48:33.374Z,2.10
2023-04-03T03:51:00.446Z,1.55
2023-04-03T03:53:27.295Z,2.47
2023-04-03T03:55:54.106Z,1.92
2023-04-03T03:58:21.162Z,2.25
2023-04-03T04:00:48.386Z,2.13
2023-04-03T04:03:15.762Z,2.95
2023-04-03T04:05:42.755Z,2.22
2023-04-03T04:08:10.015Z,1.83
2023-04-03T04:10:39.266Z,1.60
2023-04-03T04:13:06.129Z,2.30
2023-04-03T04:15:32.990Z,1.75
2023-04-03T04:17:59.745Z,1.20
2023-04-03T04:20:26.932Z,1.77
2023-04-03T04:22:54.188Z,2.75
2023-04-03T04:25:21.404Z,1.48
2023-04-03T04:27:48.264Z,2.53
2023-04-03T04:30:15.311Z,2.55
2023-04-03T04:32:42.533Z,2.40
2023-04-03T04:35:09.788Z,1.55
2023-04-03T04:37:36.661Z,2.83
2023-04-03T04:40:04.194Z,2.78
2023-04-03T04:42:31.018Z,3.80
2023-04-03T04:44:57.844Z,8.43
2023-04-03T04:47:24.710Z,3.55
2023-04-03T04:49:51.811Z,3.53
2023-04-03T04:52:18.630Z,2.20
2023-04-03T04:54:46.263Z,2.05
2023-04-03T04:57:13.116Z,2.33
2023-04-03T04:59:40.066Z,2.97
2023-04-03T05:02:06.987Z,2.60
2023-04-03T05:04:34.391Z,3.25
2023-04-03T05:07:01.353Z,1.67
2023-04-03T05:09:28.229Z,2.38
2023-04-03T05:11:55.730Z,2.55
2023-04-03T05:14:23.453Z,2.55
2023-04-03T05:16:53.814Z,2.58
2023-04-03T05:19:21.782Z,2.47
2023-04-03T05:21:48.802Z,2.95
2023-04-03T05:24:17.136Z,3.58
2023-04-03T05:26:45.265Z,2.75
2023-04-03T05:29:12.400Z,4.55
2023-04-03T05:31:39.327Z,3.35
2023-04-03T05:34:06.857Z,3.20
2023-04-03T05:36:33.871Z,4.25
2023-04-03T05:39:00.894Z,4.95
2023-04-03T05:41:28.407Z,3.08
2023-04-03T05:43:55.609Z,4.97
2023-04-03T05:46:23.070Z,3.05
2023-04-03T05:48:50.159Z,3.95
2023-04-03T05:51:30.462Z,3.15
2023-04-03T05:54:15.006Z,2.47
2023-04-03T05:56:42.484Z,3.15
2023-04-03T05:59:09.329Z,3.85
2023-04-03T06:01:36.417Z,3.85
2023-04-03T06:04:04.045Z,2.88
2023-04-03T06:06:50.003Z,2.38
2023-04-03T06:09:17.898Z,2.25
2023-04-03T06:11:45.112Z,3.08
2023-04-03T06:14:12.430Z,2.90
2023-04-03T06:16:40.277Z,3.33
2023-04-03T06:19:09.160Z,4.47
2023-04-03T06:21:36.813Z,4.05
2023-04-03T06:24:07.592Z,4.13
2023-04-03T06:26:35.239Z,3.88
2023-04-03T06:29:03.326Z,4.68
2023-04-03T06:31:30.948Z,4.47
2023-04-03T06:33:57.965Z,4.60
2023-04-03T06:36:25.232Z,4.90
2023-04-03T06:38:52.163Z,5.53
2023-04-03T06:41:19.143Z,7.70
2023-04-03T06:43:46.481Z,5.70
2023-04-03T06:46:22.075Z,5.90
2023-04-03T06:48:49.772Z,5.10
2023-04-03T06:51:27.132Z,4.55
2023-04-03T06:53:56.111Z,5.18
2023-04-03T06:56:23.050Z,6.47
2023-04-03T06:58:51.894Z,5.75
2023-04-03T07:01:22.062Z,6.30
2023-04-03T07:03:50.286Z,5.07
2023-04-03T07:06:18.374Z,4.80
2023-04-03T07:08:46.158Z,7.10
2023-04-03T07:11:14.158Z,4.85
2023-04-03T07:13:41.512Z,3.20
2023-04-03T07:16:09.414Z,5.22
2023-04-03T07:18:36.670Z,5.60
2023-04-03T07:21:04.402Z,3.50
2023-04-03T07:23:31.289Z,3.63
2023-04-03T07:25:58.107Z,3.75
2023-04-03T07:28:26.402Z,3.90
2023-04-03T07:31:00.053Z,8.10
2023-04-03T07:33:27.180Z,4.90
2023-04-03T07:35:55.103Z,7.05
2023-04-03T07:38:22.002Z,6.07
2023-04-03T07:40:50.654Z,4.85
2023-04-03T07:43:19.190Z,5.15
2023-04-03T07:45:47.838Z,4.18
2023-04-03T07:48:15.044Z,4.53
2023-04-03T07:50:42.291Z,3.58
2023-04-03T07:53:09.490Z,3.45
2023-04-03T07:55:43.763Z,3.38
2023-04-03T07:58:17.565Z,2.45
2023-04-03T08:00:44.976Z,2.88
2023-04-03T08:03:12.994Z,3.72
2023-04-03T08:05:42.301Z,5.60
2023-04-03T08:08:10.840Z,4.53
2023-04-03T08:10:37.956Z,4.53
2023-04-03T08:13:05.795Z,9.05
2023-04-03T08:15:32.857Z,4.72
2023-04-03T08:18:01.790Z,4.25
2023-04-03T08:20:29.438Z,4.22
2023-04-03T08:22:56.567Z,3.90
2023-04-03T08:25:23.906Z,4.75
2023-04-03T08:27:50.702Z,3.10
2023-04-03T08:30:17.730Z,2.75
2023-04-03T08:32:45.519Z,3.40
2023-04-03T08:35:13.084Z,4.47
2023-04-03T08:37:40.856Z,3.72
2023-04-03T08:40:13.709Z,5.65
2023-04-03T08:42:41.649Z,3.55
2023-04-03T08:45:21.516Z,2.92
2023-04-03T08:48:01.707Z,5.05
2023-04-03T08:50:39.223Z,3.33
2023-04-03T08:53:12.637Z,2.90
2023-04-03T08:55:49.021Z,3.45
2023-04-03T08:58:22.042Z,4.10
2023-04-03T09:01:27.454Z,4.07
2023-04-03T09:03:55.016Z,5.68
2023-04-03T09:06:26.910Z,4.07
2023-04-03T09:09:31.307Z,3.78
2023-04-03T09:12:27.023Z,3.88
2023-04-03T09:15:12.701Z,3.28
2023-04-03T09:17:47.653Z,4.80
2023-04-03T09:20:32.827Z,4.20
2023-04-03T09:22:59.798Z,4.28
2023-04-03T09:25:28.285Z,3.83
2023-04-03T09:27:56.695Z,3.33
2023-04-03T09:30:26.521Z,4.18
2023-04-03T09:32:56.324Z,3.08
2023-04-03T09:35:36.354Z,4.55
2023-04-03T09:38:14.333Z,3.30
2023-04-03T09:40:46.849Z,3.00
2023-04-03T09:43:25.434Z,4.07
2023-04-03T09:45:52.967Z,4.20
2023-04-03T09:48:29.198Z,3.60
2023-04-03T09:51:00.990Z,7.40
2023-04-03T09:53:40.060Z,10.63
2023-04-03T09:56:31.444Z,9.30
2023-04-03T09:59:01.780Z,7.55
2023-04-03T10:01:33.203Z,5.55
2023-04-03T10:04:16.226Z,9.77
2023-04-03T10:06:47.977Z,11.73
2023-04-03T10:09:26.583Z,9.18
2023-04-03T10:12:13.196Z,5.53
2023-04-03T10:14:57.932Z,3.78
2023-04-03T10:17:51.660Z,7.45
2023-04-03T10:20:18.865Z,4.85
2023-04-03T10:23:11.042Z,3.00
2023-04-03T10:25:43.038Z,5.18
2023-04-03T10:28:28.501Z,19.42
2023-04-03T10:31:07.625Z,14.50
2023-04-03T10:34:13.214Z,5.03
2023-04-03T10:37:02.680Z,5.07
2023-04-03T10:39:54.843Z,7.05
2023-04-03T10:43:02.193Z,5.63
2023-04-03T10:45:51.117Z,4.60
2023-04-03T10:48:41.879Z,4.97
2023-04-03T10:51:27.259Z,5.15
2023-04-03T10:54:31.001Z,4.50
2023-04-03T10:57:13.208Z,4.40
2023-04-03T10:59:52.028Z,5.93
2023-04-03T11:02:34.843Z,4.68
2023-04-03T11:05:14.651Z,5.13
2023-04-03T11:07:47.273Z,3.92
2023-04-03T11:10:37.109Z,4.85
2023-04-03T11:13:13.448Z,5.43
2023-04-03T11:15:40.996Z,7.93
2023-04-03T11:18:14.547Z,6.20
2023-04-03T11:20:48.052Z,7.25
2023-04-03T11:23:49.958Z,4.32
2023-04-03T11:26:22.006Z,5.38
2023-04-03T11:28:57.418Z,4.78
2023-04-03T11:31:56.987Z,3.67
2023-04-03T11:34:39.488Z,4.10
2023-04-03T11:37:31.913Z,3.58
2023-04-03T11:40:05.732Z,6.22
2023-04-03T11:42:43.993Z,6.05
2023-04-03T11:45:23.234Z,8.13
2023-04-03T11:47:55.167Z,10.35
2023-04-03T11:50:43.392Z,10.30
2023-04-03T11:53:13.324Z,6.70
2023-04-03T11:55:54.972Z,6.20
2023-04-03T11:58:26.395Z,4.97
2023-04-03T12:01:09.479Z,5.68
2023-04-03T12:03:43.392Z,5.05
2023-04-03T12:06:17.616Z,5.07
2023-04-03T12:08:47.447Z,3.90
2023-04-03T12:11:14.584Z,7.80
2023-04-03T12:13:53.465Z,5.65
2023-04-03T12:16:22.569Z,6.55
2023-04-03T12:18:53.190Z,6.07
2023-04-03T12:21:23.811Z,5.88
2023-04-03T12:24:28.354Z,5.05
2023-04-03T12:26:58.176Z,8.20
2023-04-03T12:29:37.462Z,8.73
2023-04-03T12:32:27.611Z,7.65
2023-04-03T12:35:20.046Z,10.30
2023-04-03T12:38:26.284Z,7.88
2023-04-03T12:41:15.535Z,9.85
2023-04-03T12:44:06.013Z,9.00
2023-04-03T12:46:45.383Z,8.50
2023-04-03T12:49:27.323Z,7.28
2023-04-03T12:51:54.556Z,19.30
2023-04-03T12:54:31.965Z,19.60
2023-04-03T12:57:21.052Z,13.13
2023-04-03T12:59:48.729Z,39.13
2023-04-03T13:02:36.494Z,19.17
2023-04-03T13:05:22.741Z,14.00
2023-04-03T13:07:55.701Z,8.40
2023-04-03T13:10:22.514Z,13.85
2023-04-03T13:13:08.468Z,6.30
2023-04-03T13:15:52.575Z,7.63
2023-04-03T13:18:39.167Z,24.70
2023-04-03T13:21:16.464Z,21.23
2023-04-03T13:23:49.161Z,13.00
2023-04-03T13:26:20.901Z,13.77
2023-04-03T13:28:48.554Z,12.27
2023-04-03T13:31:16.282Z,16.38
2023-04-03T13:33:57.036Z,9.70
2023-04-03T13:36:31.770Z,7.63
2023-04-03T13:39:08.203Z,6.43
2023-04-03T13:41:41.057Z,6.35
2023-04-03T13:44:23.189Z,11.85
2023-04-03T13:46:52.203Z,7.93
2023-04-03T13:49:38.312Z,6.03
2023-04-03T13:52:30.530Z,6.10
2023-04-03T13:55:24.801Z,8.05
2023-04-03T13:58:18.288Z,13.32
2023-04-03T14:00:55.530Z,8.98
2023-04-03T14:03:22.761Z,9.55
2023-04-03T14:05:50.869Z,8.02
2023-04-03T14:08:22.095Z,8.10
2023-04-03T14:10:54.120Z,6.65
2023-04-03T14:13:22.503Z,6.78
2023-04-03T14:15:51.881Z,7.80
2023-04-03T14:18:21.696Z,10.57
2023-04-03T14:20:50.551Z,10.38
2023-04-03T14:23:17.406Z,15.23
2023-04-03T14:25:44.900Z,14.90
2023-04-03T14:28:19.182Z,15.38
2023-04-03T14:30:47.606Z,14.02
2023-04-03T14:33:17.169Z,8.23
2023-04-03T14:35:44.355Z,5.05
2023-04-03T14:38:26.340Z,5.70
2023-04-03T14:40:57.115Z,4.28
2023-04-03T14:43:26.266Z,5.60
2023-04-03T14:45:53.394Z,3.72
2023-04-03T14:48:23.665Z,7.05
2023-04-03T14:51:04.533Z,6.00
2023-04-03T14:53:38.664Z,4.90
2023-04-03T14:56:13.552Z,6.78
2023-04-03T14:58:40.458Z,5.57
2023-04-03T15:01:07.691Z,6.45
2023-04-03T15:03:34.693Z,4.82
2023-04-03T15:06:01.764Z,8.60
2023-04-03T15:08:32.373Z,5.60
2023-04-03T15:10:59.532Z,9.02
2023-04-03T15:13:26.756Z,5.93
2023-04-03T15:15:53.836Z,5.65
2023-04-03T15:18:29.028Z,6.00
2023-04-03T15:20:57.358Z,5.03
2023-04-03T15:23:26.989Z,4.65
2023-04-03T15:25:55.086Z,4.22
2023-04-03T15:28:37.487Z,4.35
2023-04-03T15:31:05.410Z,5.45
2023-04-03T15:33:34.304Z,3.75
2023-04-03T15:36:07.255Z,4.03
2023-04-03T15:38:35.015Z,8.35
2023-04-03T15:41:01.920Z,4.43
2023-04-03T15:43:28.865Z,4.22
2023-04-03T15:45:59.035Z,4.68
2023-04-03T15:48:27.400Z,4.95
2023-04-03T15:50:54.907Z,3.83
2023-04-03T15:53:22.822Z,4.05
2023-04-03T15:55:49.677Z,4.22
2023-04-03T15:58:17.167Z,6.00
2023-04-03T16:00:44.273Z,5.65
2023-04-03T16:03:13.740Z,15.73
2023-04-03T16:05:41.174Z,6.53
2023-04-03T16:08:08.904Z,8.25
2023-04-03T16:10:37.701Z,5.20
2023-04-03T16:13:05.878Z,11.35
2023-04-03T16:15:34.338Z,4.60
2023-04-03T16:18:01.502Z,7.63
2023-04-03T16:20:28.899Z,7.93
2023-04-03T16:22:58.117Z,7.40
2023-04-03T16:25:25.740Z,7.32
2023-04-03T16:27:52.705Z,11.20
2023-04-03T16:30:20.027Z,6.90
2023-04-03T16:32:47.141Z,9.27
2023-04-03T16:35:14.122Z,6.53
2023-04-03T16:37:41.347Z,8.05
2023-04-03T16:40:09.158Z,13.48
2023-04-03T16:42:37.889Z,6.05
2023-04-03T16:45:06.961Z,9.07
2023-04-03T16:47:34.129Z,4.93
2023-04-03T16:50:01.420Z,5.93
2023-04-03T16:52:28.323Z,4.93
2023-04-03T16:54:56.582Z,7.18
2023-04-03T16:57:25.719Z,6.80
2023-04-03T16:59:53.181Z,9.85
2023-04-03T17:02:25.811Z,8.20
2023-04-03T17:04:53.625Z,8.68
2023-04-03T17:07:22.474Z,10.88
2023-04-03T17:09:49.670Z,9.43
2023-04-03T17:12:17.174Z,7.20
2023-04-03T17:14:44.457Z,8.38
2023-04-03T17:17:11.414Z,9.43
2023-04-03T17:19:39.526Z,7.72
2023-04-03T17:22:07.641Z,8.55
2023-04-03T17:24:35.351Z,8.95
2023-04-03T17:27:02.708Z,12.57
2023-04-03T17:29:29.552Z,15.90
2023-04-03T17:31:56.412Z,9.35
2023-04-03T17:34:23.798Z,9.00
2023-04-03T17:36:50.646Z,10.15
2023-04-03T17:39:17.589Z,14.55
2023-04-03T17:41:45.980Z,11.27
2023-04-03T17:44:13.723Z,12.88
2023-04-03T17:46:41.023Z,15.50
2023-04-03T17:49:10.539Z,18.65
2023-04-03T17:51:37.827Z,22.52
2023-04-03T17:54:05.400Z,19.67
2023-04-03T17:56:32.338Z,19.58
2023-04-03T17:58:59.320Z,13.15
2023-04-03T18:01:35.882Z,14.73
2023-04-03T18:04:04.928Z,11.75
2023-04-03T18:06:42.731Z,12.68
2023-04-03T18:09:16.807Z,12.63
2023-04-03T18:11:45.566Z,11.40
2023-04-03T18:14:16.462Z,14.55
2023-04-03T18:16:43.837Z,14.60
2023-04-03T18:19:22.540Z,12.25
2023-04-03T18:21:52.389Z,13.13
2023-04-03T18:24:21.777Z,11.77
2023-04-03T18:26:53.800Z,8.35
2023-04-03T18:29:21.041Z,12.38
2023-04-03T18:31:51.682Z,7.75
2023-04-03T18:34:19.049Z,4.93
2023-04-03T18:36:46.652Z,5.07
2023-04-03T18:39:13.636Z,6.18
2023-04-03T18:41:40.988Z,3.70
2023-04-03T18:44:12.825Z,4.85
2023-04-03T18:46:40.600Z,8.20
2023-04-03T18:49:08.986Z,8.07
2023-04-03T18:51:38.952Z,4.40
2023-04-03T18:54:06.997Z,6.55
2023-04-03T18:56:33.811Z,8.88
2023-04-03T18:59:00.782Z,5.13
2023-04-03T19:01:27.984Z,5.82
2023-04-03T19:03:55.254Z,7.35
2023-04-03T19:06:22.177Z,6.88
2023-04-03T19:08:51.274Z,5.63
2023-04-03T19:11:18.500Z,4.78
2023-04-03T19:14:04.380Z,3.97
2023-04-03T19:16:34.207Z,5.88
2023-04-03T19:19:01.162Z,8.52
2023-04-03T19:21:28.532Z,9.82
2023-04-03T19:23:59.020Z,6.38
2023-04-03T19:26:27.356Z,7.15
2023-04-03T19:28:54.238Z,5.82
2023-04-03T19:31:23.233Z,9.85
2023-04-03T19:33:50.762Z,8.57
2023-04-03T19:36:18.761Z,9.70
2023-04-03T19:38:46.072Z,4.80
2023-04-03T19:41:18.290Z,3.90
2023-04-03T19:43:46.256Z,5.90
2023-04-03T19:46:13.530Z,4.53
2023-04-03T19:48:40.406Z,4.70
2023-04-03T19:51:08.364Z,7.80
2023-04-03T19:53:35.299Z,6.30
2023-04-03T19:56:02.704Z,3.97
2023-04-03T19:58:30.065Z,4.68
2023-04-03T20:00:58.327Z,4.47
2023-04-03T20:03:26.155Z,8.85
2023-04-03T20:05:54.238Z,5.82
2023-04-03T20:08:21.400Z,5.80
2023-04-03T20:10:49.044Z,8.27
2023-04-03T20:13:16.379Z,7.93
2023-04-03T20:15:44.957Z,6.28
2023-04-03T20:18:18.222Z,6.63
2023-04-03T20:21:06.780Z,5.68
2023-04-03T20:23:34.677Z,4.75
2023-04-03T20:26:11.845Z,4.53
2023-04-03T20:28:42.930Z,2.70
2023-04-03T20:31:11.925Z,5.00
2023-04-03T20:33:39.109Z,3.53
2023-04-03T20:36:06.177Z,4.28
2023-04-03T20:38:32.975Z,5.72
2023-04-03T20:41:00.343Z,6.50
2023-04-03T20:43:28.483Z,7.45
2023-04-03T20:45:55.878Z,5.30
2023-04-03T20:48:23.679Z,5.80
2023-04-03T20:50:52.187Z,5.57
2023-04-03T20:53:20.769Z,4.85
2023-04-03T20:56:01.288Z,4.68
2023-04-03T20:58:30.776Z,4.80
2023-04-03T21:00:57.850Z,3.47
2023-04-03T21:03:26.881Z,3.58
2023-04-03T21:06:00.202Z,6.07
2023-04-03T21:09:05.330Z,3.50
2023-04-03T21:12:09.890Z,3.35
2023-04-03T21:15:14.651Z,4.80
2023-04-03T21:18:03.321Z,5.82
2023-04-03T21:20:31.481Z,3.70
2023-04-03T21:22:58.372Z,4.65
2023-04-03T21:25:26.888Z,4.03
2023-04-03T21:27:54.712Z,2.75
2023-04-03T21:30:22.214Z,3.75
2023-04-03T21:32:49.006Z,4.78
2023-04-03T21:35:16.271Z,3.17
2023-04-03T21:37:43.469Z,5.53
2023-04-03T21:40:11.140Z,3.47
2023-04-03T21:42:38.460Z,4.03
2023-04-03T21:45:06.299Z,3.90
2023-04-03T21:47:35.633Z,5.68
2023-04-03T21:50:03.419Z,3.03
2023-04-03T21:52:30.682Z,2.92
2023-04-03T21:54:57.586Z,5.18
2023-04-03T21:57:24.711Z,4.80
2023-04-03T21:59:52.042Z,4.25
2023-04-03T22:02:18.846Z,1.95
2023-04-03T22:04:47.287Z,3.38
2023-04-03T22:07:14.454Z,3.63
2023-04-03T22:09:41.323Z,4.07
2023-04-03T22:12:12.415Z,2.85
2023-04-03T22:14:39.568Z,3.58
2023-04-03T22:17:07.277Z,4.00
2023-04-03T22:19:34.381Z,5.43
2023-04-03T22:22:03.594Z,4.35
2023-04-03T22:24:31.126Z,4.47
2023-04-03T22:26:57.925Z,1.50
2023-04-03T22:29:24.723Z,3.47
2023-04-03T22:31:51.943Z,2.50
2023-04-03T22:34:19.783Z,2.33
2023-04-03T22:36:46.584Z,2.05
2023-04-03T22:39:15.241Z,3.40
2023-04-03T22:41:45.366Z,3.60
2023-04-03T22:44:12.919Z,2.80
2023-04-03T22:46:40.156Z,2.97
2023-04-03T22:49:07.217Z,2.17
2023-04-03T22:51:34.420Z,2.90
2023-04-03T22:54:01.372Z,3.70
2023-04-03T22:56:28.191Z,2.13
2023-04-03T22:58:55.595Z,3.15
2023-04-03T23:01:24.315Z,2.15
2023-04-03T23:03:51.817Z,2.38
2023-04-03T23:06:18.703Z,3.65
2023-04-03T23:08:45.936Z,3.00
2023-04-03T23:11:12.760Z,4.22
2023-04-03T23:13:39.647Z,4.32
2023-04-03T23:16:07.036Z,2.03
2023-04-03T23:18:34.437Z,2.95
2023-04-03T23:21:04.725Z,2.75
2023-04-03T23:23:32.729Z,2.97
2023-04-03T23:26:01.598Z,1.38
2023-04-03T23:28:29.794Z,2.58
2023-04-03T23:31:01.800Z,3.40
2023-04-03T23:33:30.776Z,2.65
2023-04-03T23:35:59.201Z,3.10
2023-04-03T23:38:26.340Z,3.17
2023-04-03T23:40:53.201Z,2.55
2023-04-03T23:43:21.120Z,2.53
2023-04-03T23:45:48.062Z,3.15
2023-04-03T23:48:15.065Z,2.00
2023-04-03T23:50:43.271Z,1.50
2023-04-03T23:53:13.008Z,2.35
2023-04-03T23:55:39.974Z,4.13
2023-04-03T23:58:07.687Z,3.53
